Latest Weather Observations for Gayndah

IDQ60801

Issued at 8:35 pm EST Wednesday 30 July 2014 (issued every 30 minutes, with the page automatically refreshed every 10 minutes)

About weather observations | Map of weather stations | Latest weather observations for QLD | Other Formats
Station Details ID: 039066 Name: GAYNDAH AIRPORT Lat: -25.62 Lon: 151.62 Height: 110.9 m
Data from the previous 72 hours. | See also: Recent months at Gayndah
Date/Time
EST
Temp
°C
App
Temp
°C
Dew
Point
Rel
Hum
%
Delta-T
°C
Wind Press
QNH
hPa
Press
MSL
hPa
Rain
since 9 am
mm
Dir
 
Spd
km/h
Gust
km/h
Spd
kts
Gust
kts
30/08:30pm 13.5 11.7 3.3 50 4.6 SE 2 4 1 2 1020.8 - 0.0
30/08:00pm 14.0 11.7 2.6 46 5.1 E 4 7 2 4 1020.5 1020.4 0.0
30/07:30pm 15.0 13.4 2.5 43 5.6 SSE 0 0 0 0 1020.2 - 0.0
30/07:00pm 15.9 13.6 3.0 42 5.9 SE 4 6 2 3 1019.8 1019.7 0.0
30/06:30pm 17.1 14.7 1.9 36 6.8 N 4 4 2 2 1019.5 - 0.0
30/06:00pm 18.2 16.1 1.7 33 7.4 NNW 2 4 1 2 1019.4 1019.3 0.0
30/05:30pm 22.2 20.7 2.8 28 9.3 CALM 0 0 0 0 1019.1 - 0.0
30/05:00pm 24.2 22.2 2.4 24 10.5 S 2 6 1 3 1018.9 1018.8 0.0
30/04:30pm 24.8 22.8 2.3 23 10.8 SSE 2 6 1 3 1018.6 - 0.0
30/04:00pm 25.1 22.5 3.1 24 10.8 SW 6 11 3 6 1018.5 1018.4 0.0
30/03:30pm 25.3 23.0 2.7 23 11.0 S 4 9 2 5 1018.5 - 0.0
30/03:00pm 25.2 22.5 2.6 23 11.0 S 6 9 3 5 1018.6 1018.5 0.0
30/02:30pm 25.4 23.1 2.8 23 11.0 NNE 4 9 2 5 1018.9 - 0.0
30/02:00pm 25.8 23.9 3.1 23 11.1 N 2 7 1 4 1019.3 1019.2 0.0
30/01:30pm 25.1 23.4 5.8 29 9.9 WSW 4 13 2 7 1019.7 - 0.0
30/01:00pm 23.9 21.8 6.7 33 8.9 W 7 15 4 8 1020.4 1020.3 0.0
30/12:30pm 24.0 23.0 7.2 34 8.8 W 2 9 1 5 1021.0 - 0.0
30/12:00pm 22.7 20.8 7.7 38 7.8 WNW 7 15 4 8 1021.7 1021.7 0.0
30/11:30am 22.4 21.0 8.9 42 7.2 WNW 6 11 3 6 1022.4 - 0.0
30/11:00am 20.5 19.5 8.8 47 6.2 WSW 4 9 2 5 1023.1 1023.1 0.0
30/10:30am 20.1 19.1 8.8 48 6.0 W 4 11 2 6 1023.7 - 0.0
30/10:00am 18.5 18.1 9.8 57 4.6 WNW 2 7 1 4 1024.1 1024.0 0.0
30/09:30am 17.0 16.2 9.7 62 3.8 W 4 7 2 4 1024.4 - 0.0
30/09:00am 15.7 15.3 9.6 67 3.2 NW 2 6 1 3 1024.5 1024.4 0.0
30/08:30am 13.5 13.0 9.2 75 2.2 WSW 2 7 1 4 1024.5 - 0.0
30/08:00am 11.3 9.8 8.3 82 1.5 W 6 7 3 4 1024.4 1024.3 0.0
30/07:30am 8.9 7.1 7.2 89 0.8 W 6 7 3 4 1024.1 - 0.0
30/07:00am 6.4 5.3 5.2 92 0.5 CALM 0 0 0 0 1023.8 1023.7 0.0
30/06:30am 6.3 5.3 5.4 94 0.4 CALM 0 0 0 0 1023.4 - 0.0
30/06:00am 6.7 5.8 6.0 95 0.3 CALM 0 0 0 0 1023.0 1023.0 0.0
30/05:30am 7.4 6.6 6.3 93 0.5 CALM 0 2 0 1 1022.6 - 0.0
30/05:00am 6.8 5.8 5.4 91 0.6 CALM 0 0 0 0 1022.2 1022.2 0.0
30/04:30am 7.7 6.5 6.5 92 0.6 WSW 2 4 1 2 1021.9 - 0.0
30/04:00am 7.7 6.9 6.5 92 0.6 CALM 0 0 0 0 1021.7 1021.7 0.0
30/03:30am 8.1 6.5 6.2 88 0.9 WSW 4 7 2 4 1021.8 - 0.0
30/03:00am 8.4 6.5 6.7 89 0.8 W 6 7 3 4 1021.6 1021.6 0.0
30/02:30am 8.3 7.7 7.2 93 0.5 CALM 0 0 0 0 1021.3 - 0.0
30/02:00am 8.5 7.5 5.6 82 1.3 CALM 0 0 0 0 1021.2 1021.2 0.0
30/01:30am 9.4 8.6 6.3 81 1.4 CALM 0 0 0 0 1021.5 - 0.0
30/01:00am 9.2 8.5 6.8 85 1.1 CALM 0 0 0 0 1021.7 1021.7 0.0
30/12:30am 10.6 9.9 6.9 78 1.8 CALM 0 0 0 0 1021.6 - 0.0
30/12:00am 11.4 10.8 7.5 77 1.9 S 0 0 0 0 1021.6 1021.6 0.0
 
Date/Time
EST
Temp
°C
App
Temp
°C
Dew
Point
Rel
Hum
%
Delta-T
°C
Wind Press
QNH
hPa
Press
MSL
hPa
Rain
since 9 am
mm
Dir
 
Spd
km/h
Gust
km/h
Spd
kts
Gust
kts
29/11:30pm 11.1 10.3 6.5 73 2.2 CALM 0 0 0 0 1021.5 - 0.0
29/11:00pm 11.5 10.5 5.4 66 2.8 CALM 0 0 0 0 1021.4 1021.4 0.0
29/10:30pm 12.4 11.7 6.9 69 2.7 CALM 0 0 0 0 1021.4 - 0.0
29/10:00pm 11.6 9.4 3.6 58 3.6 ESE 4 7 2 4 1021.4 1021.4 0.0
29/09:30pm 12.3 10.1 3.5 55 3.9 SE 4 7 2 4 1021.2 - 0.0
29/09:00pm 13.4 12.2 4.6 55 4.1 CALM 0 0 0 0 1021.2 1021.2 0.0
29/08:30pm 12.7 10.9 3.6 54 4.1 NE 2 4 1 2 1020.8 - 0.0
29/08:00pm 15.0 13.5 5.0 51 4.7 S 2 4 1 2 1020.4 1020.3 0.0
29/07:30pm 16.4 15.2 4.8 46 5.5 CALM 0 2 0 1 1020.3 - 0.0
29/07:00pm 16.8 15.5 4.2 43 5.9 CALM 0 0 0 0 1019.9 1019.8 0.0
29/06:30pm 18.5 16.6 5.0 41 6.5 E 4 6 2 3 1019.8 - 0.0
29/06:00pm 18.4 16.8 2.7 35 7.2 CALM 0 0 0 0 1019.5 1019.4 0.0
29/05:30pm 22.1 20.7 3.7 30 8.9 CALM 0 0 0 0 1019.4 - 0.0
29/05:00pm 24.7 23.4 3.9 26 10.3 CALM 0 0 0 0 1019.2 1019.1 0.0
29/04:30pm 25.1 22.7 4.3 26 10.4 SW 6 9 3 5 1019.3 - 0.0
29/04:00pm 25.1 22.6 3.7 25 10.6 W 6 11 3 6 1019.1 1019.0 0.0
29/03:30pm 25.3 22.1 3.3 24 10.8 S 9 17 5 9 1019.1 - 0.0
29/03:00pm 25.5 22.8 3.5 24 10.9 W 7 15 4 8 1019.0 1018.9 0.0
29/02:30pm 25.1 21.6 3.7 25 10.6 WNW 11 19 6 10 1019.1 - 0.0
29/02:00pm 25.1 22.1 4.3 26 10.4 W 9 17 5 9 1019.7 1019.6 0.0
29/01:30pm 24.5 21.9 3.2 25 10.4 W 6 19 3 10 1020.0 - 0.0
29/01:00pm 24.2 21.5 5.5 30 9.5 WSW 9 13 5 7 1020.5 1020.4 0.0
29/12:30pm 23.3 21.6 6.1 33 8.8 WNW 4 9 2 5 1021.1 - 0.0
29/12:00pm 22.0 19.7 7.4 39 7.6 WSW 9 13 5 7 1021.8 1021.8 0.0
29/11:30am 21.1 19.1 7.0 40 7.2 WSW 7 13 4 7 1022.5 - 0.0
29/11:00am 20.6 18.9 7.6 43 6.7 W 6 9 3 5 1023.0 1023.0 0.0
29/10:30am 18.7 16.6 5.9 43 6.3 WSW 6 11 3 6 1023.4 - 0.0
29/10:00am 17.1 15.6 5.1 45 5.7 SSW 2 7 1 4 1023.9 1023.8 0.0
29/09:30am 15.3 13.4 4.7 49 5.0 W 4 9 2 5 1024.4 - 0.0
29/09:00am 13.1 11.0 3.7 53 4.2 W 4 7 2 4 1024.3 1024.2 0.0
29/08:30am 11.3 9.1 3.3 58 3.5 W 4 7 2 4 1024.3 - 0.0
29/08:00am 10.5 9.1 3.8 63 3.0 CALM 0 0 0 0 1024.2 1024.1 0.0
29/07:30am 6.8 5.4 3.6 80 1.4 CALM 0 0 0 0 1024.2 - 0.0
29/07:00am 4.6 3.0 2.5 86 0.8 CALM 0 0 0 0 1024.0 1023.9 0.0
29/06:30am 4.7 3.3 3.5 92 0.5 CALM 0 2 0 1 1023.5 - 0.0
29/06:00am 4.6 2.7 3.1 90 0.6 WSW 2 4 1 2 1023.0 1023.0 0.0
29/05:30am 4.2 1.9 2.7 90 0.6 SW 4 4 2 2 1022.5 - 0.0
29/05:00am 4.8 3.4 3.3 90 0.6 CALM 0 0 0 0 1022.0 1022.0 0.0
29/04:30am 4.8 3.3 3.0 88 0.7 CALM 0 0 0 0 1021.8 - 0.0
29/04:00am 5.4 2.8 3.3 86 0.9 WSW 6 7 3 4 1021.7 1021.7 0.0
29/03:30am 5.4 3.8 2.2 80 1.3 CALM 0 0 0 0 1021.7 - 0.0
29/03:00am 5.3 3.7 2.7 83 1.1 CALM 0 0 0 0 1021.6 1021.6 0.0
29/02:30am 6.1 4.7 3.6 84 1.1 CALM 0 0 0 0 1021.6 - 0.0
29/02:00am 6.5 4.4 3.7 82 1.2 SW 4 6 2 3 1021.8 1021.8 0.0
29/01:30am 7.5 6.0 3.0 73 1.9 CALM 0 0 0 0 1021.9 - 0.0
29/01:00am 7.5 6.1 3.4 75 1.7 CALM 0 0 0 0 1022.0 1022.0 0.0
29/12:30am 7.3 5.0 2.6 72 2.0 SSE 4 6 2 3 1022.4 - 0.0
29/12:00am 8.6 7.1 2.8 67 2.5 CALM 0 0 0 0 1022.4 1022.4 0.0
 
Date/Time
EST
Temp
°C
App
Temp
°C
Dew
Point
Rel
Hum
%
Delta-T
°C
Wind Press
QNH
hPa
Press
MSL
hPa
Rain
since 9 am
mm
Dir
 
Spd
km/h
Gust
km/h
Spd
kts
Gust
kts
28/11:30pm 9.8 8.3 3.1 63 2.9 CALM 0 0 0 0 1022.5 - 0.0
28/11:00pm 9.8 8.2 2.4 60 3.1 CALM 0 0 0 0 1022.5 1022.5 0.0
28/10:30pm 9.3 6.3 2.2 61 3.0 SE 7 11 4 6 1022.5 - 0.0
28/10:00pm 9.9 7.1 2.0 58 3.3 S 6 6 3 3 1022.4 1022.4 0.0
28/09:30pm 10.3 8.3 2.2 57 3.5 W 2 4 1 2 1022.2 - 0.0
28/09:00pm 10.3 8.2 1.9 56 3.5 NNW 2 6 1 3 1022.0 1022.0 0.0
28/08:30pm 12.1 10.3 1.4 48 4.6 CALM 0 0 0 0 1021.6 - 0.0
28/08:00pm 13.0 11.2 1.4 45 5.0 CALM 0 0 0 0 1021.3 1021.3 0.0
28/07:30pm 13.6 11.7 0.6 41 5.5 CALM 0 0 0 0 1021.1 - 0.0
28/07:00pm 15.0 12.4 1.2 39 6.0 SSE 4 4 2 2 1020.8 1020.8 0.0
28/06:30pm 15.6 13.0 1.0 37 6.4 SSE 4 6 2 3 1020.5 - 0.0
28/06:00pm 16.6 14.6 -0.1 32 7.2 CALM 0 0 0 0 1020.2 1020.1 0.0
28/05:30pm 20.3 18.4 0.7 27 8.8 CALM 0 0 0 0 1020.2 - 0.0
28/05:00pm 22.4 19.3 0.3 23 10.0 SW 6 7 3 4 1020.1 1020.0 0.0
28/04:30pm 23.5 20.2 -0.1 21 10.8 W 7 13 4 7 1019.8 - 0.0
28/04:00pm 23.7 20.1 0.7 22 10.6 SW 9 13 5 7 1019.7 1019.6 0.0
28/03:30pm 24.1 20.7 1.7 23 10.6 WSW 9 15 5 8 1019.8 - 0.0
28/03:00pm 23.8 19.9 1.4 23 10.5 WSW 11 17 6 9 1019.9 1019.8 0.0
28/02:30pm 23.3 19.2 2.2 25 10.0 WSW 13 24 7 13 1020.1 - 0.0
28/02:00pm 23.5 19.7 1.8 24 10.2 WSW 11 19 6 10 1020.4 1020.3 0.0
28/01:30pm 23.1 19.2 0.9 23 10.3 SW 11 19 6 10 1020.8 - 0.0
28/01:00pm 22.7 18.4 1.1 24 10.0 W 13 24 7 13 1021.4 1021.4 0.0
28/12:30pm 21.9 18.6 2.6 28 9.2 W 9 19 5 10 1022.1 - 0.0
28/12:00pm 21.2 18.7 4.7 34 8.1 WSW 7 13 4 7 1022.9 1022.9 0.0
28/11:30am 20.6 18.1 5.0 36 7.7 W 7 13 4 7 1023.5 - 0.0
28/11:00am 19.4 17.4 4.4 37 7.2 S 4 6 2 3 1024.2 1024.1 0.0
28/10:30am 18.4 16.6 3.5 37 7.0 WSW 2 4 1 2 1024.6 - 0.0
28/10:00am 16.8 14.9 3.1 40 6.3 NNW 2 7 1 4 1024.9 1024.8 0.0
28/09:30am 14.4 12.5 2.9 46 5.2 W 2 7 1 4 1025.1 - 0.0
28/09:00am 12.6 10.3 3.0 52 4.2 W 4 7 2 4 1025.2 1025.1 0.0
28/08:30am 10.8 8.1 2.4 56 3.6 W 6 7 3 4 1025.1 - 0.0
28/08:00am 9.2 7.5 2.1 61 3.0 CALM 0 0 0 0 1025.0 1024.9 0.0
28/07:30am 5.9 4.1 1.4 73 1.8 CALM 0 0 0 0 1024.6 - 0.0
28/07:00am 4.0 2.1 0.5 78 1.3 CALM 0 0 0 0 1024.5 1024.4 0.0
28/06:30am 4.2 2.5 1.7 84 1.0 CALM 0 0 0 0 1024.2 - 0.0
28/06:00am 3.7 1.9 1.3 84 0.9 CALM 0 0 0 0 1023.9 1023.8 0.0
28/05:30am 4.2 2.5 1.9 85 0.9 CALM 0 0 0 0 1023.5 - 0.0
28/05:00am 4.8 2.1 2.7 86 0.9 SW 6 9 3 5 1023.4 1023.4 0.0
28/04:30am 5.0 2.6 2.0 81 1.2 SW 4 6 2 3 1023.1 - 0.0
28/04:00am 4.8 2.8 0.2 72 1.8 CALM 0 0 0 0 1023.0 1023.0 0.0
28/03:30am 6.8 4.7 1.5 69 2.1 S 2 4 1 2 1022.9 - 0.0
28/03:00am 6.1 4.4 2.0 75 1.7 CALM 0 4 0 2 1022.6 1022.6 0.0
28/02:30am 6.3 4.3 2.4 76 1.6 S 2 4 1 2 1022.9 - 0.0
28/02:00am 7.1 4.6 1.4 67 2.3 SSW 4 6 2 3 1023.2 1023.2 0.0
28/01:30am 7.8 5.3 1.4 64 2.6 S 4 6 2 3 1023.4 - 0.0
28/01:00am 7.6 5.4 3.3 74 1.8 S 4 6 2 3 1023.9 1023.8 0.0
28/12:30am 7.9 5.0 2.6 69 2.2 SW 7 7 4 4 1023.9 - 0.0
28/12:00am 7.2 4.6 0.9 64 2.5 N 4 6 2 3 1023.8 1023.7 0.0
 
Date/Time
EST
Temp
°C
App
Temp
°C
Dew
Point
Rel
Hum
%
Delta-T
°C
Wind Press
QNH
hPa
Press
MSL
hPa
Rain
since 9 am
mm
Dir
 
Spd
km/h
Gust
km/h
Spd
kts
Gust
kts
27/11:30pm 8.4 6.5 0.6 58 3.1 CALM 0 0 0 0 1023.8 - 0.0
27/11:00pm 8.7 6.4 0.4 56 3.3 N 2 7 1 4 1023.8 1023.7 0.0
27/10:30pm 10.2 8.4 1.1 53 3.8 CALM 0 0 0 0 1023.7 - 0.0
27/10:00pm 9.7 7.7 -0.2 50 3.9 CALM 0 0 0 0 1023.7 1023.6 0.0
27/09:30pm 11.3 9.1 1.0 49 4.3 ENE 2 6 1 3 1023.4 - 0.0
27/09:00pm 13.4 11.7 1.7 45 5.1 CALM 0 0 0 0 1023.3 1023.3 0.0

Other Formats:

Comma delimited format used in spreadsheet applications
http://www.bom.gov.au/fwo/IDQ60801/IDQ60801.95543.axf

JavaScript Object Notation format (JSON) in row-major order
http://www.bom.gov.au/fwo/IDQ60801/IDQ60801.95543.json